City View Heights, Ohio
Current Conditions -  °F | °C
As of 12:53 AM on Saturday 20 Dec 2014 (Local Time) from KHAO Reporting Station
Overcast Overcast  
Wind Chill: 31°   Ceiling: 2300
Heat Index: 31°   Visibility: 10mi
Dew Point: 23°   Wind: 3mph
Humidity: 72%   Direction: 70°ENE
Pressure: 30.27"   Gusts: NA
Location:  39.4247°N, 84.5012°W
Report Text: KHAO 200553Z AUTO 07003KT 10SM OVC023 M01/M05 A3027 RMK AO2 SLP258 T10061050 10000 21006 56006
Loading
Personal Weather Stations






























Interactive Weather Map New forecast layout! Learn more

10-Day Weather Forecast

Advertisements
Track Severe Weather on mobile